createdAt,value
2022-09-07T00:03:37.180Z,16.23
2022-09-07T00:08:39.324Z,16.48
2022-09-07T00:13:41.672Z,15.40
2022-09-07T00:18:46.067Z,15.90
2022-09-07T00:23:49.697Z,17.00
2022-09-07T00:28:50.864Z,16.85
2022-09-07T00:33:54.860Z,16.67
2022-09-07T00:38:55.762Z,16.23
2022-09-07T00:43:59.054Z,16.02
2022-09-07T00:49:08.233Z,16.05
2022-09-07T00:54:13.221Z,16.17
2022-09-07T00:59:16.613Z,14.73
2022-09-07T01:04:19.405Z,16.30
2022-09-07T01:09:22.991Z,15.18
2022-09-07T01:14:26.745Z,14.68
2022-09-07T01:20:03.991Z,14.93
2022-09-07T01:25:11.397Z,15.65
2022-09-07T01:30:15.446Z,15.02
2022-09-07T01:35:23.939Z,15.15
2022-09-07T01:40:31.563Z,14.38
2022-09-07T01:45:37.705Z,14.57
2022-09-07T01:50:41.496Z,14.52
2022-09-07T01:55:46.587Z,14.20
2022-09-07T02:00:54.061Z,15.13
2022-09-07T02:06:01.714Z,14.57
2022-09-07T02:11:06.251Z,14.75
2022-09-07T02:16:13.876Z,14.70
2022-09-07T02:21:18.653Z,13.60
2022-09-07T02:26:22.062Z,12.90
2022-09-07T02:31:24.687Z,13.90
2022-09-07T02:36:32.292Z,13.95
2022-09-07T02:41:35.341Z,13.73
2022-09-07T02:47:06.765Z,13.02
2022-09-07T02:52:17.641Z,12.63
2022-09-07T02:57:27.453Z,12.32
2022-09-07T03:02:36.215Z,13.00
2022-09-07T03:07:44.260Z,12.85
2022-09-07T03:12:47.237Z,11.93
2022-09-07T03:17:49.682Z,12.60
2022-09-07T03:22:52.111Z,11.80
2022-09-07T03:27:52.747Z,12.40
2022-09-07T03:32:54.731Z,13.63
2022-09-07T03:37:55.356Z,12.13
2022-09-07T03:42:55.954Z,12.27
2022-09-07T03:47:57.947Z,12.77
2022-09-07T03:52:58.555Z,13.18
2022-09-07T03:58:00.164Z,13.18
2022-09-07T04:03:02.085Z,12.40
2022-09-07T04:08:03.172Z,13.40
2022-09-07T04:13:03.774Z,12.55
2022-09-07T04:18:05.782Z,12.32
2022-09-07T04:23:06.399Z,12.85
2022-09-07T04:28:07.019Z,13.27
2022-09-07T04:33:10.395Z,13.35
2022-09-07T04:38:15.348Z,12.75
2022-09-07T04:43:15.955Z,13.25
2022-09-07T04:48:17.878Z,14.50
2022-09-07T04:53:18.683Z,13.02
2022-09-07T04:58:19.294Z,13.18
2022-09-07T05:03:21.290Z,12.93
2022-09-07T05:08:21.931Z,12.30
2022-09-07T05:13:22.717Z,13.32
2022-09-07T05:18:24.882Z,12.88
2022-09-07T05:23:26.255Z,12.60
2022-09-07T05:28:26.897Z,12.77
2022-09-07T05:38:49.493Z,14.05
2022-09-07T05:49:12.586Z,13.02
2022-09-07T05:54:13.255Z,13.38
2022-09-07T05:59:13.855Z,13.10
2022-09-07T06:04:15.888Z,12.43
2022-09-07T06:09:17.157Z,11.13
2022-09-07T06:14:17.790Z,10.73
2022-09-07T06:19:19.845Z,10.40
2022-09-07T06:24:20.486Z,11.25
2022-09-07T06:29:21.077Z,9.98
2022-09-07T06:34:24.148Z,10.52
2022-09-07T06:39:24.853Z,10.45
2022-09-07T06:44:25.576Z,10.55
2022-09-07T06:49:27.546Z,10.38
2022-09-07T06:59:48.943Z,10.10
2022-09-07T07:04:51.837Z,10.52
2022-09-07T07:09:52.451Z,10.02
2022-09-07T07:14:53.035Z,10.23
2022-09-07T07:19:54.962Z,9.70
2022-09-07T07:24:55.653Z,9.05
2022-09-07T07:29:56.260Z,10.35
2022-09-07T07:34:58.182Z,10.05
2022-09-07T07:40:14.568Z,9.95
2022-09-07T07:50:37.626Z,8.95
2022-09-07T07:55:45.676Z,8.77
2022-09-07T08:00:55.210Z,8.80
2022-09-07T08:05:58.060Z,8.18
2022-09-07T08:10:58.752Z,8.85
2022-09-07T08:15:59.508Z,8.95
2022-09-07T08:21:02.239Z,8.52
2022-09-07T08:26:02.874Z,8.35
2022-09-07T08:31:06.097Z,8.30
2022-09-07T08:36:09.851Z,7.88
2022-09-07T08:41:39.268Z,7.72
2022-09-07T08:46:45.613Z,7.95
2022-09-07T08:51:51.769Z,8.38
2022-09-07T09:02:40.267Z,8.40
2022-09-07T09:07:47.245Z,8.35
2022-09-07T09:13:05.402Z,8.85
2022-09-07T09:18:20.917Z,8.05
2022-09-07T09:23:26.737Z,8.63
2022-09-07T09:28:30.270Z,7.82
2022-09-07T09:33:33.107Z,7.07
2022-09-07T09:38:36.883Z,6.75
2022-09-07T09:43:45.386Z,7.88
2022-09-07T09:48:54.296Z,6.93
2022-09-07T09:54:00.148Z,6.70
2022-09-07T10:04:35.495Z,7.03
2022-09-07T10:09:40.457Z,6.63
2022-09-07T10:14:45.272Z,6.65
2022-09-07T10:19:45.954Z,6.55
2022-09-07T10:24:47.902Z,6.32
2022-09-07T10:29:48.953Z,6.10
2022-09-07T10:35:05.275Z,6.10
2022-09-07T10:40:20.766Z,6.65
2022-09-07T10:45:28.921Z,6.18
2022-09-07T10:50:38.212Z,5.85
2022-09-07T10:55:43.416Z,6.38
2022-09-07T11:00:52.265Z,5.85
2022-09-07T11:06:07.347Z,6.03
2022-09-07T11:12:00.352Z,6.00
2022-09-07T11:16:51.735Z,6.50
2022-09-07T11:22:04.950Z,7.03
2022-09-07T11:27:15.498Z,6.72
2022-09-07T11:32:22.353Z,6.40
2022-09-07T11:37:29.156Z,6.95
2022-09-07T11:42:45.979Z,6.70
2022-09-07T11:47:51.599Z,6.78
2022-09-07T11:52:56.313Z,6.93
2022-09-07T11:58:29.923Z,6.30
2022-09-07T12:03:54.756Z,7.03
2022-09-07T12:09:07.665Z,6.53
2022-09-07T12:14:31.342Z,6.97
2022-09-07T12:19:32.087Z,6.68
2022-09-07T12:24:42.099Z,6.53
2022-09-07T12:29:45.568Z,6.38
2022-09-07T12:34:57.959Z,6.38
2022-09-07T12:40:33.120Z,6.22
2022-09-07T12:45:53.407Z,6.25
2022-09-07T12:50:58.875Z,7.30
2022-09-07T12:56:24.322Z,7.60
2022-09-07T13:01:36.287Z,7.63
2022-09-07T13:07:04.570Z,6.93
2022-09-07T13:17:56.335Z,7.95
2022-09-07T13:23:22.763Z,9.57
2022-09-07T13:28:34.829Z,10.02
2022-09-07T13:33:48.241Z,10.07
2022-09-07T13:38:51.320Z,11.00
2022-09-07T13:43:58.715Z,11.43
2022-09-07T13:49:07.518Z,11.38
2022-09-07T13:54:16.873Z,10.50
2022-09-07T13:59:22.068Z,10.13
2022-09-07T14:04:27.196Z,17.00
2022-09-07T14:09:27.823Z,9.10
2022-09-07T14:14:30.190Z,9.05
2022-09-07T14:19:39.236Z,8.45
2022-09-07T14:24:43.509Z,10.60
2022-09-07T14:29:44.121Z,8.88
2022-09-07T14:34:46.934Z,8.20
2022-09-07T14:39:50.387Z,8.63
2022-09-07T14:44:53.242Z,7.57
2022-09-07T14:49:58.073Z,8.38
2022-09-07T14:54:58.848Z,8.48
2022-09-07T15:00:19.396Z,8.35
2022-09-07T15:05:25.637Z,8.02
2022-09-07T15:10:36.833Z,7.35
2022-09-07T15:15:39.551Z,7.57
2022-09-07T15:20:44.267Z,6.82
2022-09-07T15:25:50.860Z,5.53
2022-09-07T15:31:39.633Z,5.18
2022-09-07T15:36:17.501Z,4.60
2022-09-07T15:41:24.199Z,4.30
2022-09-07T15:46:26.396Z,4.40
2022-09-07T16:13:01.799Z,5.43
2022-09-07T16:18:04.453Z,5.82
2022-09-07T16:23:14.690Z,6.10
2022-09-07T16:28:16.063Z,7.05
2022-09-07T16:33:16.709Z,6.07
2022-09-07T16:43:39.318Z,17.98
2022-09-07T16:48:39.910Z,36.72
2022-09-07T16:53:42.135Z,39.75
2022-09-07T16:58:44.433Z,13.13
2022-09-07T17:03:45.611Z,7.65
2022-09-07T17:08:48.389Z,8.65
2022-09-07T17:13:49.682Z,8.93
2022-09-07T17:24:12.941Z,9.57
2022-09-07T17:29:13.586Z,11.90
2022-09-07T17:34:14.229Z,11.27
2022-09-07T17:39:18.143Z,10.45
2022-09-07T17:44:19.340Z,10.75
2022-09-07T17:49:19.973Z,10.38
2022-09-07T17:54:22.233Z,10.90
2022-09-07T18:04:43.819Z,9.98
2022-09-07T18:09:45.925Z,9.75
2022-09-07T18:14:46.625Z,10.75
2022-09-07T18:19:47.233Z,10.77
2022-09-07T18:24:50.985Z,10.57
2022-09-07T18:29:51.611Z,10.85
2022-09-07T18:34:52.324Z,11.00
2022-09-07T18:39:54.554Z,11.10
2022-09-07T18:50:16.909Z,10.32
2022-09-07T18:55:18.822Z,11.13
2022-09-07T19:00:19.618Z,11.85
2022-09-07T19:10:42.301Z,11.80
2022-09-07T19:15:42.981Z,12.13
2022-09-07T19:20:43.646Z,13.00
2022-09-07T19:25:45.649Z,12.32
2022-09-07T19:30:46.377Z,13.63
2022-09-07T19:35:46.997Z,13.05
2022-09-07T19:40:57.484Z,14.23
2022-09-07T19:45:59.202Z,14.30
2022-09-07T19:51:02.325Z,15.07
2022-09-07T19:56:06.294Z,15.23
2022-09-07T20:01:08.646Z,14.55
2022-09-07T20:06:11.421Z,15.32
2022-09-07T20:11:16.261Z,14.93
2022-09-07T20:16:19.656Z,16.13
2022-09-07T20:21:22.458Z,16.02
2022-09-07T20:26:24.443Z,15.65
2022-09-07T20:31:26.195Z,16.05
2022-09-07T20:36:26.859Z,17.40
2022-09-07T20:41:31.256Z,16.70
2022-09-07T20:46:32.510Z,16.45
2022-09-07T20:51:33.355Z,16.30
2022-09-07T20:56:35.332Z,17.83
2022-09-07T21:01:36.603Z,17.83
2022-09-07T21:06:37.390Z,17.92
2022-09-07T21:11:41.266Z,18.23
2022-09-07T21:16:42.540Z,19.02
2022-09-07T21:21:43.855Z,17.30
2022-09-07T21:26:46.132Z,18.55
2022-09-07T21:31:47.393Z,18.27
2022-09-07T21:36:48.026Z,18.38
2022-09-07T21:41:49.931Z,19.48
2022-09-07T21:46:51.133Z,18.42
2022-09-07T21:51:51.884Z,18.77
2022-09-07T21:56:54.187Z,19.45
2022-09-07T22:01:54.810Z,19.85
2022-09-07T22:06:55.521Z,19.95
2022-09-07T22:11:57.551Z,19.17
2022-09-07T22:16:58.167Z,19.80
2022-09-07T22:21:58.778Z,20.23
2022-09-07T22:27:00.663Z,20.05
2022-09-07T22:32:01.294Z,21.08
2022-09-07T22:37:01.917Z,20.92
2022-09-07T22:42:03.902Z,20.95
2022-09-07T22:47:04.653Z,22.40
2022-09-07T22:52:05.338Z,20.88
2022-09-07T22:57:07.551Z,22.30
2022-09-07T23:02:08.260Z,20.27
2022-09-07T23:07:08.921Z,22.27
2022-09-07T23:12:10.839Z,20.48
2022-09-07T23:17:11.405Z,20.27
2022-09-07T23:22:11.992Z,21.05
2022-09-07T23:27:13.961Z,19.52
2022-09-07T23:32:14.586Z,20.33
2022-09-07T23:37:15.174Z,20.67
2022-09-07T23:42:17.089Z,20.40
2022-09-07T23:47:17.837Z,19.95
2022-09-07T23:52:18.445Z,19.92
2022-09-07T23:57:20.334Z,20.33
